Terminal Aerodrome Forecast
Issued by NWS

Home | Current Version | Previous Version | Text Only | Print | Product List | Glossary On
Versions: 1 2 3 4 5 6 7 8 9 10 11 12 13 14 15 16 17 18 19 20
807
FTUS42 KMLB 271727
TAFSFB
TAF
KSFB 271727Z 2718/2818 14013G17KT P6SM BKN045 BKN060
     FM280000 12005KT P6SM SCT040
     FM280800 14003KT P6SM SCT008
      TEMPO 2809/2812 2SM BR BKN008
     FM281500 14009KT P6SM SCT025=

USA.gov is the U.S. government's official web portal to all federal, state and local government web resources and services.